| Date | Time | Temp. (oF) | Dew Point (oF) | Rel. Hum. (%) | Press. (in.) | Wind Dir. | Wind Speed (mph) | Hourly Rainfall (in.) |
|
|---|---|---|---|---|---|---|---|---|---|
| 1 | 05/09 | 00:00 | 59 | 48 | 69 | 30.28 | SSE | 2 | 0.00 |
| 2 | 05/08 | 23:00 | 61 | 49 | 67 | 30.29 | SE | 1 | 0.00 |
| 3 | 05/08 | 22:00 | 61 | 49 | 65 | 30.28 | SE | 5 | 0.00 |
| 4 | 05/08 | 21:00 | 63 | 45 | 53 | 30.26 | SSE | 3 | 0.00 |
| 5 | 05/08 | 20:00 | 66 | 43 | 45 | 30.25 | SSE | 3 | 0.00 |
| 6 | 05/08 | 19:00 | 68 | 40 | 37 | 30.24 | SSW | 4 | 0.00 |
| 7 | 05/08 | 18:00 | 68 | 41 | 38 | 30.24 | S | 4 | 0.00 |
| 8 | 05/08 | 17:00 | 70 | 40 | 35 | 30.24 | S | 5 | 0.00 |
| 9 | 05/08 | 16:00 | 70 | 42 | 37 | 30.27 | SSE | 7 | 0.00 |
| 10 | 05/08 | 15:00 | 70 | 47 | 45 | 30.30 | SE | 9 | 0.00 |
| 11 | 05/08 | 14:00 | 69 | 48 | 49 | 30.33 | SSE | 4 | 0.00 |
| 12 | 05/08 | 13:00 | 66 | 49 | 55 | 30.36 | E | 8 | 0.00 |
| 13 | 05/08 | 12:00 | 63 | 48 | 59 | 30.39 | S | 7 | 0.00 |
| 14 | 05/08 | 11:00 | 59 | 48 | 69 | 30.42 | E | 7 | 0.00 |
| 15 | 05/08 | 10:00 | 56 | 48 | 76 | 30.43 | SSE | 4 | 0.00 |
| 16 | 05/08 | 09:00 | 54 | 47 | 78 | 30.44 | SE | 2 | 0.00 |
| 17 | 05/08 | 08:00 | 52 | 47 | 85 | 30.45 | E | 2 | 0.00 |
| 18 | 05/08 | 07:00 | 50 | 47 | 91 | 30.45 | S | 1 | 0.00 |
| 19 | 05/08 | 06:00 | 49 | 46 | 91 | 30.44 | SSW | 2 | 0.00 |
| 20 | 05/08 | 05:00 | 47 | 44 | 92 | 30.44 | S | 0 | 0.00 |
| 21 | 05/08 | 04:00 | 46 | 42 | 88 | 30.44 | NE | 1 | 0.00 |
| 22 | 05/08 | 03:00 | 47 | 43 | 87 | 30.45 | ESE | 0 | 0.00 |
| 23 | 05/08 | 02:00 | 48 | 43 | 83 | 30.46 | E | 3 | 0.00 |
| 24 | 05/08 | 01:00 | 50 | 44 | 80 | 30.48 | SE | 1 | 0.00 |